Terminal Aerodrome Forecast
Issued by NWS

Home | Current Version | Previous Version | Graphics & Text | Print | Product List | Glossary On
Versions: 1 2 3 4 5 6 7 8 9 10 11 12 13 14
000
FTUS43 KMPX 060526
TAFRWF
TAF
KRWF 060526Z 0606/0706 25008KT 5SM TSRA BR BKN030 OVC050CB
      TEMPO 0606/0609 3/4SM +TSRA BR OVC008CB
     FM061000 02008KT 4SM TSRA BR OVC015CB
     FM061600 34012G20KT 6SM -SHRA SCT015 OVC040
     FM062100 34011G18KT P6SM BKN100
     FM070000 32007KT P6SM SKC=

USA.gov is the U.S. government's official web portal to all federal, state and local government web resources and services.